createdAt,value
2017-10-01T00:00:18.298Z,15.10
2017-10-01T00:02:46.570Z,15.10
2017-10-01T00:05:14.879Z,15.10
2017-10-01T00:07:43.142Z,14.90
2017-10-01T00:10:11.456Z,14.90
2017-10-01T00:12:39.709Z,14.90
2017-10-01T00:15:07.958Z,14.80
2017-10-01T00:17:36.990Z,14.70
2017-10-01T00:20:05.278Z,14.70
2017-10-01T00:22:33.544Z,14.70
2017-10-01T00:25:01.796Z,14.70
2017-10-01T00:27:30.856Z,14.70
2017-10-01T00:29:59.112Z,14.60
2017-10-01T00:32:27.366Z,14.70
2017-10-01T00:34:56.387Z,14.70
2017-10-01T00:37:24.685Z,14.60
2017-10-01T00:39:52.950Z,14.60
2017-10-01T00:42:21.222Z,14.60
2017-10-01T00:44:49.523Z,14.60
2017-10-01T00:47:17.799Z,14.60
2017-10-01T00:49:46.192Z,14.60
2017-10-01T00:52:14.451Z,14.50
2017-10-01T00:54:42.737Z,14.50
2017-10-01T00:57:11.047Z,14.50
2017-10-01T00:59:39.334Z,14.50
2017-10-01T01:02:07.604Z,14.40
2017-10-01T01:04:35.878Z,14.50
2017-10-01T01:07:04.152Z,14.40
2017-10-01T01:09:32.445Z,14.40
2017-10-01T01:12:00.703Z,14.30
2017-10-01T01:14:28.997Z,14.30
2017-10-01T01:16:57.249Z,14.30
2017-10-01T01:19:25.521Z,14.30
2017-10-01T01:21:54.535Z,14.20
2017-10-01T01:24:27.033Z,14.20
2017-10-01T01:26:56.413Z,14.10
2017-10-01T01:29:25.453Z,14.00
2017-10-01T01:31:53.722Z,14.00
2017-10-01T01:34:21.999Z,14.00
2017-10-01T01:36:50.291Z,13.90
2017-10-01T01:39:18.553Z,13.90
2017-10-01T01:41:46.858Z,13.90
2017-10-01T01:44:15.126Z,13.80
2017-10-01T01:46:43.378Z,13.80
2017-10-01T01:49:11.645Z,13.90
2017-10-01T01:51:40.683Z,13.90
2017-10-01T01:54:08.954Z,13.90
2017-10-01T01:56:37.248Z,13.80
2017-10-01T01:59:05.515Z,13.70
2017-10-01T02:01:33.805Z,13.70
2017-10-01T02:04:02.072Z,13.60
2017-10-01T02:06:30.342Z,13.60
2017-10-01T02:08:59.376Z,13.60
2017-10-01T02:11:27.635Z,13.60
2017-10-01T02:13:55.896Z,13.50
2017-10-01T02:16:24.909Z,13.50
2017-10-01T02:18:53.184Z,13.50
2017-10-01T02:21:21.448Z,13.50
2017-10-01T02:23:50.479Z,13.50
2017-10-01T02:26:18.771Z,13.50
2017-10-01T02:28:47.038Z,13.50
2017-10-01T02:31:15.297Z,13.50
2017-10-01T02:33:44.782Z,13.50
2017-10-01T02:36:13.032Z,13.50
2017-10-01T02:38:41.294Z,13.50
2017-10-01T02:41:09.555Z,13.50
2017-10-01T02:43:37.832Z,13.50
2017-10-01T02:46:06.181Z,13.50
2017-10-01T02:48:34.439Z,13.40
2017-10-01T02:51:02.693Z,13.50
2017-10-01T02:53:30.987Z,13.50
2017-10-01T02:55:59.259Z,13.40
2017-10-01T02:58:27.522Z,13.40
2017-10-01T03:00:56.591Z,13.40
2017-10-01T03:03:24.838Z,13.40
2017-10-01T03:05:53.125Z,13.40
2017-10-01T03:08:21.414Z,13.40
2017-10-01T03:10:49.781Z,13.40
2017-10-01T03:13:18.035Z,13.40
2017-10-01T03:15:47.066Z,13.30
2017-10-01T03:18:15.335Z,13.30
2017-10-01T03:20:43.608Z,13.30
2017-10-01T03:23:11.866Z,13.30
2017-10-01T03:25:40.910Z,13.20
2017-10-01T03:28:09.170Z,13.20
2017-10-01T03:30:37.461Z,13.20
2017-10-01T03:33:05.705Z,13.20
2017-10-01T03:35:34.762Z,13.20
2017-10-01T03:38:03.019Z,13.20
2017-10-01T03:40:31.323Z,13.20
2017-10-01T03:42:59.583Z,13.30
2017-10-01T03:45:27.857Z,13.20
2017-10-01T03:47:56.111Z,13.20
2017-10-01T03:50:25.143Z,13.10
2017-10-01T03:52:53.428Z,13.10
2017-10-01T03:55:21.720Z,13.00
2017-10-01T03:57:49.986Z,13.00
2017-10-01T04:00:18.263Z,12.90
2017-10-01T04:02:46.551Z,13.00
2017-10-01T04:05:14.821Z,12.90
2017-10-01T04:07:43.120Z,12.90
2017-10-01T04:10:11.388Z,12.90
2017-10-01T04:12:39.680Z,12.80
2017-10-01T04:15:07.950Z,12.70
2017-10-01T04:17:36.341Z,12.70
2017-10-01T04:20:04.618Z,12.70
2017-10-01T04:22:32.872Z,12.60
2017-10-01T04:25:01.142Z,12.60
2017-10-01T04:27:30.230Z,12.50
2017-10-01T04:29:58.567Z,12.50
2017-10-01T04:32:26.822Z,12.60
2017-10-01T04:34:55.098Z,12.50
2017-10-01T04:37:23.356Z,12.40
2017-10-01T04:39:52.377Z,12.40
2017-10-01T04:42:20.680Z,12.40
2017-10-01T04:44:48.963Z,12.40
2017-10-01T04:47:17.251Z,12.40
2017-10-01T04:49:45.518Z,12.30
2017-10-01T04:52:13.855Z,12.30
2017-10-01T04:54:43.384Z,12.30
2017-10-01T04:57:12.391Z,12.30
2017-10-01T04:59:40.651Z,12.30
2017-10-01T05:02:09.682Z,12.20
2017-10-01T05:04:37.938Z,12.20
2017-10-01T05:07:06.966Z,12.20
2017-10-01T05:09:35.287Z,12.10
2017-10-01T05:12:03.644Z,12.10
2017-10-01T05:14:31.883Z,12.00
2017-10-01T05:17:00.922Z,11.90
2017-10-01T05:19:29.175Z,11.90
2017-10-01T05:21:57.447Z,11.90
2017-10-01T05:24:26.458Z,11.90
2017-10-01T05:26:55.494Z,11.90
2017-10-01T05:29:23.773Z,11.90
2017-10-01T05:31:52.033Z,11.90
2017-10-01T05:34:20.317Z,11.90
2017-10-01T05:36:48.589Z,11.90
2017-10-01T05:39:16.855Z,11.90
2017-10-01T05:41:45.170Z,11.90
2017-10-01T05:44:13.416Z,11.90
2017-10-01T05:46:41.690Z,11.90
2017-10-01T05:49:09.999Z,11.90
2017-10-01T05:51:40.258Z,11.90
2017-10-01T05:54:08.532Z,11.90
2017-10-01T05:56:36.779Z,11.90
2017-10-01T05:59:05.081Z,11.90
2017-10-01T06:01:33.346Z,11.80
2017-10-01T06:04:01.654Z,11.90
2017-10-01T06:06:29.916Z,11.90
2017-10-01T06:08:58.155Z,11.80
2017-10-01T06:11:26.490Z,11.90
2017-10-01T06:13:54.771Z,11.90
2017-10-01T06:16:23.883Z,12.00
2017-10-01T06:18:52.132Z,12.10
2017-10-01T06:21:20.392Z,12.20
2017-10-01T06:23:49.426Z,12.60
2017-10-01T06:26:17.693Z,12.60
2017-10-01T06:28:45.944Z,12.80
2017-10-01T06:31:14.275Z,13.10
2017-10-01T06:33:42.518Z,13.30
2017-10-01T06:36:11.545Z,13.70
2017-10-01T06:38:39.783Z,13.70
2017-10-01T06:41:09.550Z,14.10
2017-10-01T06:43:38.558Z,14.40
2017-10-01T06:46:06.823Z,14.40
2017-10-01T06:48:35.107Z,14.60
2017-10-01T06:51:03.376Z,14.90
2017-10-01T06:53:31.623Z,15.10
2017-10-01T06:56:00.660Z,15.50
2017-10-01T06:58:28.910Z,15.40
2017-10-01T07:00:57.927Z,16.00
2017-10-01T07:03:26.185Z,16.00
2017-10-01T07:05:55.207Z,16.60
2017-10-01T07:08:23.486Z,16.50
2017-10-01T07:10:52.490Z,17.20
2017-10-01T07:13:20.866Z,17.20
2017-10-01T07:15:49.117Z,17.50
2017-10-01T07:18:18.150Z,17.70
2017-10-01T07:20:46.410Z,17.80
2017-10-01T07:23:15.438Z,17.80
2017-10-01T07:25:43.748Z,17.80
2017-10-01T07:28:12.106Z,17.60
2017-10-01T07:30:40.364Z,17.40
2017-10-01T07:33:09.455Z,16.90
2017-10-01T07:35:37.709Z,16.90
2017-10-01T07:38:05.968Z,16.70
2017-10-01T07:40:34.219Z,16.50
2017-10-01T07:43:02.483Z,16.30
2017-10-01T07:45:31.504Z,16.00
2017-10-01T07:47:59.769Z,16.00
2017-10-01T07:53:01.482Z,15.70
2017-10-01T07:55:29.743Z,15.60
2017-10-01T07:57:58.083Z,15.40
2017-10-01T08:00:26.332Z,15.20
2017-10-01T08:02:54.590Z,15.00
2017-10-01T08:05:22.855Z,14.90
2017-10-01T08:07:51.895Z,14.80
2017-10-01T08:10:20.152Z,14.80
2017-10-01T08:12:48.418Z,14.70
2017-10-01T08:15:16.700Z,14.70
2017-10-01T08:17:45.010Z,14.80
2017-10-01T08:20:13.294Z,14.80
2017-10-01T08:22:41.571Z,14.80
2017-10-01T08:25:09.828Z,14.60
2017-10-01T08:27:38.108Z,14.60
2017-10-01T08:30:06.355Z,14.60
2017-10-01T08:32:34.688Z,14.60
2017-10-01T08:35:02.982Z,14.60
2017-10-01T08:37:31.246Z,14.60
2017-10-01T08:39:59.521Z,14.60
2017-10-01T08:42:27.826Z,14.60
2017-10-01T08:44:56.082Z,14.70
2017-10-01T08:47:24.351Z,14.70
2017-10-01T08:49:52.653Z,14.90
2017-10-01T08:52:20.957Z,14.90
2017-10-01T08:54:49.208Z,15.00
2017-10-01T08:57:17.474Z,15.00
2017-10-01T08:59:46.498Z,15.00
2017-10-01T09:02:14.771Z,14.90
2017-10-01T09:04:43.247Z,15.00
2017-10-01T09:07:11.676Z,15.00
2017-10-01T09:09:40.046Z,15.10
2017-10-01T09:12:08.303Z,15.20
2017-10-01T09:14:37.333Z,15.50
2017-10-01T09:17:05.595Z,15.50
2017-10-01T09:19:33.856Z,15.80
2017-10-01T09:22:02.107Z,16.00
2017-10-01T09:24:30.441Z,16.50
2017-10-01T09:26:58.694Z,16.80
2017-10-01T09:29:26.998Z,17.10
2017-10-01T09:31:55.272Z,17.20
2017-10-01T09:34:23.870Z,17.10
2017-10-01T09:36:52.151Z,17.40
2017-10-01T09:39:20.427Z,17.80
2017-10-01T09:41:48.730Z,18.20
2017-10-01T09:44:17.011Z,18.60
2017-10-01T09:46:45.423Z,18.80
2017-10-01T09:49:13.967Z,18.80
2017-10-01T09:51:42.542Z,18.70
2017-10-01T09:54:11.939Z,18.90
2017-10-01T09:56:40.950Z,19.20
2017-10-01T09:59:09.220Z,19.20
2017-10-01T10:01:37.488Z,19.20
2017-10-01T10:04:06.549Z,19.10
2017-10-01T10:06:34.786Z,19.10
2017-10-01T10:09:03.068Z,19.10
2017-10-01T10:11:31.319Z,19.30
2017-10-01T10:13:59.594Z,19.30
2017-10-01T10:16:27.864Z,19.10
2017-10-01T10:18:56.135Z,19.00
2017-10-01T10:21:24.398Z,19.10
2017-10-01T10:23:53.547Z,19.20
2017-10-01T10:26:22.598Z,19.40
2017-10-01T10:28:50.912Z,19.40
2017-10-01T10:31:19.147Z,19.70
2017-10-01T10:33:47.438Z,19.70
2017-10-01T10:36:17.470Z,19.70
2017-10-01T10:38:45.750Z,19.70
2017-10-01T10:41:14.043Z,19.80
2017-10-01T10:43:42.310Z,20.00
2017-10-01T10:46:10.570Z,20.30
2017-10-01T10:48:38.845Z,20.40
2017-10-01T10:51:07.115Z,20.70
2017-10-01T10:53:35.395Z,20.60
2017-10-01T10:56:03.645Z,20.60
2017-10-01T10:58:31.916Z,20.60
2017-10-01T11:01:01.675Z,20.60
2017-10-01T11:03:30.701Z,20.70
2017-10-01T11:05:58.964Z,20.70
2017-10-01T11:08:27.249Z,20.70
2017-10-01T11:10:55.823Z,20.70
2017-10-01T11:13:24.090Z,20.70
2017-10-01T11:15:53.134Z,20.50
2017-10-01T11:18:21.415Z,20.50
2017-10-01T11:20:49.682Z,20.40
2017-10-01T11:23:20.227Z,20.40
2017-10-01T11:25:48.503Z,20.40
2017-10-01T11:28:16.784Z,20.50
2017-10-01T11:30:45.046Z,20.60
2017-10-01T11:33:13.291Z,20.60
2017-10-01T11:35:41.538Z,20.80
2017-10-01T11:38:10.553Z,20.80
2017-10-01T11:40:38.897Z,20.80
2017-10-01T11:43:07.188Z,20.80
2017-10-01T11:45:35.471Z,20.70
2017-10-01T11:48:03.727Z,20.80
2017-10-01T11:50:31.986Z,20.80
2017-10-01T11:53:00.992Z,20.50
2017-10-01T11:55:30.133Z,20.40
2017-10-01T11:57:58.378Z,20.40
2017-10-01T12:00:27.471Z,20.30
2017-10-01T12:02:56.480Z,20.30
2017-10-01T12:05:24.740Z,20.20
2017-10-01T12:07:53.754Z,20.10
2017-10-01T12:10:22.775Z,20.00
2017-10-01T12:12:51.018Z,20.00
2017-10-01T12:15:20.060Z,19.80
2017-10-01T12:17:48.307Z,19.80
2017-10-01T12:20:17.334Z,19.40
2017-10-01T12:22:45.611Z,19.40
2017-10-01T12:25:13.868Z,19.60
2017-10-01T12:27:42.884Z,19.80
2017-10-01T12:30:11.141Z,19.70
2017-10-01T12:32:40.149Z,19.90
2017-10-01T12:35:09.186Z,19.80
2017-10-01T12:37:37.463Z,19.80
2017-10-01T12:40:05.751Z,19.80
2017-10-01T12:42:34.030Z,19.90
2017-10-01T12:45:02.297Z,19.80
2017-10-01T12:47:30.543Z,19.70
2017-10-01T12:49:59.591Z,19.70
2017-10-01T12:52:27.905Z,19.70
2017-10-01T12:54:56.935Z,19.80
2017-10-01T12:57:25.219Z,19.80
2017-10-01T12:59:54.348Z,19.90
2017-10-01T13:02:22.629Z,19.80
2017-10-01T13:04:50.892Z,20.00
2017-10-01T13:07:19.131Z,20.00
2017-10-01T13:09:47.385Z,20.00
2017-10-01T13:12:15.632Z,20.00
2017-10-01T13:14:43.874Z,19.90
2017-10-01T13:17:12.193Z,20.00
2017-10-01T13:19:40.456Z,19.90
2017-10-01T13:22:09.485Z,20.00
2017-10-01T13:24:37.728Z,19.90
2017-10-01T13:27:06.752Z,19.90
2017-10-01T13:29:34.986Z,19.90
2017-10-01T13:32:03.243Z,20.00
2017-10-01T13:34:31.502Z,20.10
2017-10-01T13:36:59.790Z,20.10
2017-10-01T13:39:28.032Z,20.00
2017-10-01T13:41:57.065Z,20.00
2017-10-01T13:44:25.366Z,20.00
2017-10-01T13:46:53.642Z,20.20
2017-10-01T13:49:21.921Z,20.40
2017-10-01T13:51:50.180Z,20.50
2017-10-01T13:54:18.480Z,20.50
2017-10-01T13:56:46.759Z,20.50
2017-10-01T13:59:15.002Z,20.50
2017-10-01T14:01:44.066Z,20.40
2017-10-01T14:04:12.327Z,20.30
2017-10-01T14:06:40.562Z,20.00
2017-10-01T14:09:09.592Z,20.10
2017-10-01T14:11:38.149Z,20.10
2017-10-01T14:14:07.170Z,19.90
2017-10-01T14:16:35.417Z,19.90
2017-10-01T14:19:04.443Z,19.70
2017-10-01T14:21:32.738Z,19.70
2017-10-01T14:24:00.993Z,19.50
2017-10-01T14:26:30.036Z,19.20
2017-10-01T14:28:58.266Z,19.20
2017-10-01T14:31:27.293Z,19.00
2017-10-01T14:33:56.298Z,19.00
2017-10-01T14:36:24.561Z,19.00
2017-10-01T14:38:52.821Z,18.90
2017-10-01T14:41:21.908Z,18.60
2017-10-01T14:43:51.160Z,18.70
2017-10-01T14:46:19.789Z,18.70
2017-10-01T14:48:48.069Z,18.60
2017-10-01T14:51:16.337Z,18.60
2017-10-01T14:53:44.604Z,18.70
2017-10-01T14:56:12.895Z,18.60
2017-10-01T14:58:41.162Z,18.60
2017-10-01T15:01:09.407Z,18.50
2017-10-01T15:03:38.435Z,18.60
2017-10-01T15:06:06.684Z,18.60
2017-10-01T15:08:35.724Z,18.60
2017-10-01T15:11:04.012Z,18.50
2017-10-01T15:13:32.289Z,18.50
2017-10-01T15:16:00.668Z,18.40
2017-10-01T15:18:29.073Z,18.40
2017-10-01T15:20:57.323Z,18.30
2017-10-01T15:23:25.807Z,18.20
2017-10-01T15:25:54.069Z,18.20
2017-10-01T15:28:23.208Z,18.10
2017-10-01T15:30:51.468Z,18.10
2017-10-01T15:33:19.820Z,18.10
2017-10-01T15:35:48.191Z,18.10
2017-10-01T15:38:17.945Z,17.90
2017-10-01T15:40:46.204Z,17.90
2017-10-01T15:43:15.209Z,17.90
2017-10-01T15:45:44.371Z,17.80
2017-10-01T15:48:12.608Z,17.80
2017-10-01T15:50:40.915Z,17.80
2017-10-01T15:53:09.159Z,17.70
2017-10-01T15:55:38.201Z,17.70
2017-10-01T15:58:06.436Z,17.70
2017-10-01T16:00:35.459Z,17.70
2017-10-01T16:03:03.747Z,17.70
2017-10-01T16:05:32.010Z,17.70
2017-10-01T16:08:00.250Z,17.70
2017-10-01T16:10:28.512Z,17.60
2017-10-01T16:12:56.752Z,17.60
2017-10-01T16:15:25.015Z,17.50
2017-10-01T16:17:54.033Z,17.50
2017-10-01T16:20:22.322Z,17.50
2017-10-01T16:22:50.609Z,17.50
2017-10-01T16:25:18.867Z,17.50
2017-10-01T16:27:47.174Z,17.50
2017-10-01T16:30:15.455Z,17.50
2017-10-01T16:32:43.709Z,17.40
2017-10-01T16:35:11.987Z,17.50
2017-10-01T16:37:40.243Z,17.50
2017-10-01T16:40:09.274Z,17.40
2017-10-01T16:42:37.513Z,17.40
2017-10-01T16:45:05.763Z,17.40
2017-10-01T16:47:34.034Z,17.30
2017-10-01T16:50:02.280Z,17.30
2017-10-01T16:52:31.354Z,17.20
2017-10-01T16:55:00.374Z,17.20
2017-10-01T16:57:29.411Z,17.10
2017-10-01T16:59:57.652Z,17.10
2017-10-01T17:02:26.696Z,17.10
2017-10-01T17:04:54.956Z,17.10
2017-10-01T17:07:23.212Z,17.10
2017-10-01T17:09:52.214Z,17.00
2017-10-01T17:12:20.505Z,17.00
2017-10-01T17:14:49.530Z,17.00
2017-10-01T17:17:17.834Z,17.00
2017-10-01T17:19:46.135Z,17.00
2017-10-01T17:22:14.487Z,17.00
2017-10-01T17:24:42.731Z,17.00
2017-10-01T17:27:11.038Z,17.00
2017-10-01T17:29:39.285Z,17.00
2017-10-01T17:32:08.426Z,17.00
2017-10-01T17:34:36.700Z,16.90
2017-10-01T17:37:04.967Z,17.00
2017-10-01T17:39:33.221Z,16.90
2017-10-01T17:42:02.298Z,17.00
2017-10-01T17:44:30.542Z,17.00
2017-10-01T17:46:58.824Z,17.00
2017-10-01T17:49:27.082Z,17.00
2017-10-01T17:51:55.358Z,17.10
2017-10-01T17:54:23.683Z,17.00
2017-10-01T18:00:01.792Z,17.00
2017-10-01T18:02:30.031Z,16.90
2017-10-01T18:04:59.048Z,17.00
2017-10-01T18:07:27.290Z,17.10
2017-10-01T18:09:55.536Z,17.00
2017-10-01T18:12:23.905Z,17.00
2017-10-01T18:14:53.297Z,16.90
2017-10-01T18:17:21.563Z,16.80
2017-10-01T18:19:49.813Z,16.80
2017-10-01T18:22:18.821Z,16.70
2017-10-01T18:24:47.060Z,16.70
2017-10-01T18:27:15.303Z,16.60
2017-10-01T18:29:44.292Z,16.60
2017-10-01T18:32:12.545Z,16.60
2017-10-01T18:34:40.786Z,16.50
2017-10-01T18:37:09.024Z,16.40
2017-10-01T18:39:37.259Z,16.40
2017-10-01T18:42:05.512Z,16.30
2017-10-01T18:44:34.511Z,16.20
2017-10-01T18:47:03.540Z,16.20
2017-10-01T18:49:31.780Z,16.20
2017-10-01T18:52:00.806Z,16.10
2017-10-01T18:54:29.820Z,16.00
2017-10-01T18:56:58.080Z,16.00
2017-10-01T18:59:26.323Z,16.00
2017-10-01T19:01:55.357Z,16.00
2017-10-01T19:04:23.592Z,16.00
2017-10-01T19:06:52.636Z,15.90
2017-10-01T19:09:20.871Z,15.80
2017-10-01T19:11:49.889Z,15.80
2017-10-01T19:14:18.132Z,15.80
2017-10-01T19:16:47.148Z,15.70
2017-10-01T19:19:15.388Z,15.70
2017-10-01T19:21:43.657Z,15.70
2017-10-01T19:24:11.885Z,15.60
2017-10-01T19:26:40.130Z,15.60
2017-10-01T19:29:09.222Z,15.50
2017-10-01T19:31:37.445Z,15.50
2017-10-01T19:34:05.696Z,15.50
2017-10-01T19:36:33.937Z,15.40
2017-10-01T19:39:02.201Z,15.40
2017-10-01T19:41:30.433Z,15.40
2017-10-01T19:43:58.693Z,15.40
2017-10-01T19:46:26.924Z,15.30
2017-10-01T19:48:55.199Z,15.30
2017-10-01T19:51:23.445Z,15.30
2017-10-01T19:53:51.693Z,15.30
2017-10-01T19:56:19.934Z,15.20
2017-10-01T19:58:48.186Z,15.20
2017-10-01T20:01:16.424Z,15.20
2017-10-01T20:03:44.688Z,15.20
2017-10-01T20:06:13.684Z,15.10
2017-10-01T20:08:42.705Z,15.10
2017-10-01T20:11:10.945Z,15.10
2017-10-01T20:13:39.959Z,14.90
2017-10-01T20:16:08.204Z,15.00
2017-10-01T20:18:36.489Z,14.90
2017-10-01T20:21:04.706Z,15.00
2017-10-01T20:23:32.965Z,15.00
2017-10-01T20:26:01.204Z,15.00
2017-10-01T20:28:29.454Z,15.00
2017-10-01T20:30:57.704Z,15.00
2017-10-01T20:33:25.948Z,14.90
2017-10-01T20:35:54.982Z,14.80
2017-10-01T20:38:23.216Z,14.80
2017-10-01T20:40:52.238Z,14.70
2017-10-01T20:43:20.481Z,14.70
2017-10-01T20:45:49.513Z,14.70
2017-10-01T20:48:17.741Z,14.70
2017-10-01T20:50:46.001Z,14.60
2017-10-01T20:53:14.238Z,14.60
2017-10-01T20:55:42.494Z,14.60
2017-10-01T20:58:10.744Z,14.60
2017-10-01T21:00:39.013Z,14.60
2017-10-01T21:03:07.248Z,14.70
2017-10-01T21:05:35.503Z,14.80
2017-10-01T21:08:03.737Z,14.80
2017-10-01T21:10:31.999Z,14.80
2017-10-01T21:13:00.236Z,14.80
2017-10-01T21:15:28.487Z,14.80
2017-10-01T21:17:57.493Z,14.70
2017-10-01T21:20:25.745Z,14.70
2017-10-01T21:22:53.975Z,14.70
2017-10-01T21:25:23.081Z,14.60
2017-10-01T21:27:51.306Z,14.60
2017-10-01T21:30:20.360Z,14.60
2017-10-01T21:32:48.706Z,14.60
2017-10-01T21:35:16.998Z,14.50
2017-10-01T21:37:45.239Z,14.50
2017-10-01T21:40:13.473Z,14.40
2017-10-01T21:42:41.720Z,14.40
2017-10-01T21:45:09.953Z,14.30
2017-10-01T21:47:38.972Z,14.10
2017-10-01T21:50:07.213Z,14.10
2017-10-01T21:52:35.463Z,14.10
2017-10-01T21:55:03.709Z,14.10
2017-10-01T21:57:32.025Z,14.10
2017-10-01T22:00:00.310Z,14.20
2017-10-01T22:02:28.606Z,14.20
2017-10-01T22:04:57.672Z,14.10
2017-10-01T22:07:25.923Z,14.20
2017-10-01T22:09:54.932Z,14.10
2017-10-01T22:12:23.228Z,14.10
2017-10-01T22:14:51.449Z,14.10
2017-10-01T22:17:19.712Z,14.10
2017-10-01T22:19:47.945Z,14.10
2017-10-01T22:22:16.209Z,14.10
2017-10-01T22:24:44.448Z,14.00
2017-10-01T22:27:12.708Z,14.10
2017-10-01T22:29:40.941Z,14.10
2017-10-01T22:32:09.205Z,14.00
2017-10-01T22:34:37.444Z,14.00
2017-10-01T22:37:05.677Z,13.90
2017-10-01T22:39:33.932Z,14.00
2017-10-01T22:42:02.165Z,13.90
2017-10-01T22:44:30.416Z,13.90
2017-10-01T22:46:58.654Z,14.00
2017-10-01T22:49:26.895Z,14.00
2017-10-01T22:51:55.150Z,14.00
2017-10-01T22:54:24.048Z,14.00
2017-10-01T22:56:53.044Z,14.00
2017-10-01T22:59:22.076Z,14.00
2017-10-01T23:01:50.316Z,14.00
2017-10-01T23:04:19.338Z,14.00
2017-10-01T23:06:47.575Z,14.00
2017-10-01T23:09:16.597Z,13.90
2017-10-01T23:11:44.840Z,13.90
2017-10-01T23:14:13.869Z,13.80
2017-10-01T23:16:42.124Z,13.90
2017-10-01T23:19:11.179Z,13.90
2017-10-01T23:21:39.420Z,13.90
2017-10-01T23:24:07.675Z,13.90
2017-10-01T23:26:36.681Z,13.90
2017-10-01T23:29:04.931Z,13.90
2017-10-01T23:31:33.934Z,14.00
2017-10-01T23:34:02.952Z,14.00
2017-10-01T23:36:31.185Z,14.00
2017-10-01T23:38:59.456Z,14.00
2017-10-01T23:41:27.690Z,14.10
2017-10-01T23:43:55.965Z,14.10
2017-10-01T23:46:24.253Z,14.20
2017-10-01T23:48:52.498Z,14.20
2017-10-01T23:51:20.756Z,14.20
2017-10-01T23:53:49.764Z,14.20
2017-10-01T23:56:18.024Z,14.20
2017-10-01T23:58:47.018Z,14.20
